Time;durP1;ratioP1;P1;durP2;ratioP2;P2;SDS_P1;SDS_P2;PMS_P1;PMS_P2;Temp;Humidity;BMP_temperature;BMP_pressure;BME280_temperature;BME280_humidity;BME280_pressure;Samples;Min_cycle;Max_cycle;Signal;HPM_P1;HPM_P2
2022/09/26 00:01:20;;;;;;;;;;;19.80;45.40;;;;;;5069077;28;19924;-64
2022/09/26 00:03:48;;;;;;;;;;;19.80;45.50;;;;;;5064403;28;19968;-64
2022/09/26 00:06:16;;;;;;;;;;;19.80;45.50;;;;;;5052680;28;19920;-64
2022/09/26 00:08:43;;;;;;;;;;;19.80;45.50;;;;;;5049349;28;19928;-64
2022/09/26 00:11:11;;;;;;;;;;;19.70;45.40;;;;;;5052505;28;19924;-64
2022/09/26 00:13:39;;;;;;;;;;;19.80;45.40;;;;;;5050241;28;20015;-64
2022/09/26 00:16:06;;;;;;;;;;;19.70;45.40;;;;;;5051176;28;19967;-64
2022/09/26 00:18:32;;;;;;;;;;;19.70;45.40;;;;;;5069987;28;19924;-64
2022/09/26 00:21:02;;;;;;;;;;;19.70;45.30;;;;;;5070399;28;19930;-66
2022/09/26 00:23:29;;;;;;;;;;;19.70;45.30;;;;;;5064555;28;19955;-65
2022/09/26 00:25:56;;;;;;;;;;;19.80;45.40;;;;;;5071465;28;20024;-65
2022/09/26 00:28:24;;;;;;;;;;;19.70;45.30;;;;;;5068551;28;20326;-65
2022/09/26 00:30:51;;;;;;;;;;;19.70;45.30;;;;;;5069640;28;20018;-64
2022/09/26 00:33:17;;;;;;;;;;;19.70;45.30;;;;;;5068251;28;20242;-65
2022/09/26 00:35:48;;;;;;;;;;;19.70;45.30;;;;;;5063963;28;19948;-64
2022/09/26 00:38:15;;;;;;;;;;;19.70;45.30;;;;;;5048584;28;19921;-65
2022/09/26 00:40:42;;;;;;;;;;;19.70;45.30;;;;;;5072926;28;19929;-64
2022/09/26 00:43:24;;;;;;;;;;;19.70;45.40;;;;;;5066045;28;20338;-64
2022/09/26 00:45:52;;;;;;;;;;;19.70;45.40;;;;;;5063873;28;19929;-64
2022/09/26 00:48:19;;;;;;;;;;;19.70;45.40;;;;;;5067526;28;19991;-64
2022/09/26 00:50:46;;;;;;;;;;;19.70;45.40;;;;;;5068321;28;19920;-63
2022/09/26 00:53:14;;;;;;;;;;;19.70;45.50;;;;;;5053423;28;19921;-63
2022/09/26 00:55:42;;;;;;;;;;;19.70;45.40;;;;;;5050814;28;20024;-63
2022/09/26 00:58:10;;;;;;;;;;;19.70;45.50;;;;;;5068427;28;19970;-64
2022/09/26 01:00:37;;;;;;;;;;;19.70;45.50;;;;;;5056456;28;19925;-64
2022/09/26 01:03:05;;;;;;;;;;;19.70;45.50;;;;;;5064272;28;19931;-64
2022/09/26 01:05:32;;;;;;;;;;;19.70;45.50;;;;;;5064829;28;19948;-64
2022/09/26 01:07:59;;;;;;;;;;;19.70;45.50;;;;;;5059173;28;19971;-67
2022/09/26 01:10:26;;;;;;;;;;;19.70;45.50;;;;;;5049250;28;19996;-66
2022/09/26 01:12:53;;;;;;;;;;;19.70;45.50;;;;;;5062584;28;19980;-64
2022/09/26 01:15:20;;;;;;;;;;;19.70;45.40;;;;;;5068322;28;19924;-64
2022/09/26 01:17:47;;;;;;;;;;;19.70;45.40;;;;;;5067937;28;19921;-65
2022/09/26 01:20:20;;;;;;;;;;;19.70;45.40;;;;;;5063575;28;19925;-65
2022/09/26 01:22:56;;;;;;;;;;;19.70;45.40;;;;;;5077548;28;20308;-67
2022/09/26 01:25:24;;;;;;;;;;;19.70;45.40;;;;;;5056780;28;19925;-64
2022/09/26 01:27:53;;;;;;;;;;;19.60;45.30;;;;;;5050975;28;20021;-66
2022/09/26 01:30:21;;;;;;;;;;;19.70;45.40;;;;;;5064673;28;19960;-65
2022/09/26 01:32:56;;;;;;;;;;;19.60;45.30;;;;;;5067237;28;20286;-65
2022/09/26 01:35:38;;;;;;;;;;;19.70;45.40;;;;;;5047913;28;19924;-65
2022/09/26 01:38:09;;;;;;;;;;;19.60;45.30;;;;;;5061712;28;19921;-66
2022/09/26 01:40:37;;;;;;;;;;;19.60;45.30;;;;;;5067833;28;19974;-66
2022/09/26 01:43:05;;;;;;;;;;;19.70;45.40;;;;;;5067938;28;19991;-64
2022/09/26 01:45:35;;;;;;;;;;;19.60;45.40;;;;;;5067220;28;19921;-65
2022/09/26 01:48:03;;;;;;;;;;;19.60;45.40;;;;;;5069046;28;19958;-65
2022/09/26 01:50:36;;;;;;;;;;;19.60;45.40;;;;;;5067710;28;19928;-67
2022/09/26 01:53:03;;;;;;;;;;;19.60;45.40;;;;;;5067316;28;19921;-64
2022/09/26 01:55:30;;;;;;;;;;;19.60;45.30;;;;;;5063930;28;19960;-65
2022/09/26 01:57:59;;;;;;;;;;;19.60;45.30;;;;;;5067458;28;20009;-64
2022/09/26 02:00:25;;;;;;;;;;;19.60;45.40;;;;;;5066128;28;19921;-64
2022/09/26 02:02:53;;;;;;;;;;;19.60;45.30;;;;;;5058485;28;20429;-64
2022/09/26 02:05:21;;;;;;;;;;;19.60;45.30;;;;;;5084549;28;19927;-64
2022/09/26 02:07:49;;;;;;;;;;;19.60;45.40;;;;;;5067740;28;20282;-65
2022/09/26 02:10:16;;;;;;;;;;;19.60;45.40;;;;;;5066760;28;19927;-64
2022/09/26 02:12:44;;;;;;;;;;;19.60;45.40;;;;;;5067290;28;20039;-64
2022/09/26 02:15:11;;;;;;;;;;;19.60;45.40;;;;;;5066540;28;19924;-64
2022/09/26 02:17:38;;;;;;;;;;;19.60;45.40;;;;;;5072875;28;20019;-63
2022/09/26 02:20:09;;;;;;;;;;;19.60;45.50;;;;;;5072189;28;20019;-64
2022/09/26 02:22:36;;;;;;;;;;;19.60;45.50;;;;;;5075474;28;20380;-65
2022/09/26 02:25:03;;;;;;;;;;;19.60;45.50;;;;;;5070992;28;20399;-64
2022/09/26 02:27:29;;;;;;;;;;;19.60;45.50;;;;;;5069898;28;19924;-63
2022/09/26 02:29:56;;;;;;;;;;;19.60;45.50;;;;;;5070774;28;19955;-64
2022/09/26 02:32:25;;;;;;;;;;;19.60;45.60;;;;;;5070454;28;19921;-63
2022/09/26 02:34:52;;;;;;;;;;;19.60;45.60;;;;;;5070737;28;19920;-65
2022/09/26 02:37:20;;;;;;;;;;;19.60;45.60;;;;;;5070972;28;19929;-64
2022/09/26 02:39:47;;;;;;;;;;;19.60;45.60;;;;;;5070829;28;19920;-64
2022/09/26 02:42:17;;;;;;;;;;;19.60;45.60;;;;;;5069604;28;20408;-64
2022/09/26 02:44:58;;;;;;;;;;;19.60;45.60;;;;;;5072018;28;20018;-64
2022/09/26 02:47:40;;;;;;;;;;;19.60;45.70;;;;;;5061297;28;19925;-65
2022/09/26 02:50:34;;;;;;;;;;;19.60;45.70;;;;;;5065192;28;20019;-65
2022/09/26 02:53:05;;;;;;;;;;;19.60;45.70;;;;;;5048263;28;19927;-64
2022/09/26 02:55:32;;;;;;;;;;;19.60;46.30;;;;;;5087374;28;19931;-64
2022/09/26 02:58:04;;;;;;;;;;;19.60;45.70;;;;;;5072485;28;19968;-64
2022/09/26 03:00:32;;;;;;;;;;;19.60;45.70;;;;;;5069490;28;19927;-64
2022/09/26 03:03:01;;;;;;;;;;;19.60;45.70;;;;;;5070372;28;19970;-66
2022/09/26 03:05:29;;;;;;;;;;;19.60;45.70;;;;;;5070209;28;19924;-64
2022/09/26 03:07:56;;;;;;;;;;;19.60;45.80;;;;;;5071468;28;20031;-64
2022/09/26 03:10:24;;;;;;;;;;;19.60;45.70;;;;;;5059791;28;20015;-65
2022/09/26 03:12:51;;;;;;;;;;;19.60;45.70;;;;;;5057236;28;19921;-65
2022/09/26 03:15:18;;;;;;;;;;;19.60;45.70;;;;;;5070412;28;19920;-64
2022/09/26 03:17:47;;;;;;;;;;;19.60;45.70;;;;;;5071651;28;19924;-63
2022/09/26 03:20:14;;;;;;;;;;;19.60;45.70;;;;;;5071292;28;19925;-64
2022/09/26 03:22:41;;;;;;;;;;;19.60;45.70;;;;;;5051136;28;19966;-65
2022/09/26 03:25:08;;;;;;;;;;;19.60;45.80;;;;;;5049768;28;20285;-64
2022/09/26 03:27:37;;;;;;;;;;;19.60;45.80;;;;;;5054273;28;20021;-66
2022/09/26 03:30:04;;;;;;;;;;;19.60;45.80;;;;;;5069171;28;20019;-64
2022/09/26 03:32:31;;;;;;;;;;;19.60;45.70;;;;;;5085033;28;20436;-64
2022/09/26 03:34:57;;;;;;;;;;;19.60;46.30;;;;;;5069646;28;19921;-66
2022/09/26 03:37:24;;;;;;;;;;;19.60;45.70;;;;;;5067200;28;19963;-65
2022/09/26 03:39:51;;;;;;;;;;;19.50;45.60;;;;;;5069475;28;19931;-65
2022/09/26 03:42:17;;;;;;;;;;;19.60;45.80;;;;;;5065790;28;20000;-67
2022/09/26 03:44:45;;;;;;;;;;;19.60;45.80;;;;;;5066700;28;19925;-65
2022/09/26 03:47:12;;;;;;;;;;;19.60;45.80;;;;;;5067137;28;19925;-65
2022/09/26 03:49:39;;;;;;;;;;;19.60;45.80;;;;;;5069165;28;19964;-65
2022/09/26 03:52:06;;;;;;;;;;;19.60;45.80;;;;;;5069268;28;19924;-64
2022/09/26 03:54:33;;;;;;;;;;;19.50;45.70;;;;;;5066342;28;20382;-65
2022/09/26 03:57:00;;;;;;;;;;;19.50;45.60;;;;;;5052237;28;19948;-64
2022/09/26 03:59:26;;;;;;;;;;;19.50;45.70;;;;;;5067199;28;20019;-65
2022/09/26 04:01:55;;;;;;;;;;;19.60;45.80;;;;;;5067192;28;20395;-64
2022/09/26 04:04:21;;;;;;;;;;;19.50;45.60;;;;;;5066974;28;20011;-65
2022/09/26 04:06:50;;;;;;;;;;;19.50;45.60;;;;;;5069125;28;19956;-65
2022/09/26 04:09:17;;;;;;;;;;;19.50;45.70;;;;;;5064949;28;19967;-63
2022/09/26 04:11:44;;;;;;;;;;;19.50;45.70;;;;;;5049595;28;20019;-67
2022/09/26 04:14:11;;;;;;;;;;;19.50;45.70;;;;;;5063548;28;19920;-64
2022/09/26 04:16:37;;;;;;;;;;;19.50;45.70;;;;;;5069148;28;20019;-65
2022/09/26 04:19:05;;;;;;;;;;;19.50;45.70;;;;;;5061686;28;19964;-65
2022/09/26 04:21:33;;;;;;;;;;;19.50;45.70;;;;;;5066166;28;19952;-64
2022/09/26 04:23:59;;;;;;;;;;;19.50;45.70;;;;;;5068666;28;19989;-65
2022/09/26 04:26:27;;;;;;;;;;;19.50;45.80;;;;;;5084978;28;19928;-65
2022/09/26 04:28:54;;;;;;;;;;;19.50;45.80;;;;;;5084082;28;19932;-67
2022/09/26 04:31:21;;;;;;;;;;;19.50;45.80;;;;;;5048797;28;19921;-64
2022/09/26 04:33:48;;;;;;;;;;;19.50;45.70;;;;;;5058627;28;19963;-65
2022/09/26 04:36:16;;;;;;;;;;;19.50;45.70;;;;;;5066726;28;19925;-65
2022/09/26 04:38:43;;;;;;;;;;;19.50;45.70;;;;;;5067610;28;20066;-64
2022/09/26 04:41:10;;;;;;;;;;;19.50;45.80;;;;;;5086082;28;19920;-64
2022/09/26 04:43:37;;;;;;;;;;;19.50;45.70;;;;;;5075457;28;19966;-64
2022/09/26 04:46:06;;;;;;;;;;;19.50;45.70;;;;;;5064635;28;20019;-65
2022/09/26 04:48:32;;;;;;;;;;;19.50;45.70;;;;;;5057178;28;20349;-64
2022/09/26 04:50:59;;;;;;;;;;;19.50;45.70;;;;;;5068239;28;19974;-64
2022/09/26 04:53:28;;;;;;;;;;;19.50;45.70;;;;;;5064639;28;19975;-64
2022/09/26 04:55:55;;;;;;;;;;;19.50;45.80;;;;;;5049459;28;19928;-64
2022/09/26 04:58:22;;;;;;;;;;;19.40;45.70;;;;;;5070474;28;20270;-64
2022/09/26 05:00:48;;;;;;;;;;;19.50;45.80;;;;;;5066892;28;19970;-66
2022/09/26 05:03:17;;;;;;;;;;;19.50;45.80;;;;;;5063251;28;21085;-65
2022/09/26 05:05:46;;;;;;;;;;;19.50;45.80;;;;;;5066230;28;19924;-64
2022/09/26 05:08:12;;;;;;;;;;;19.50;45.80;;;;;;5067709;28;19925;-64
2022/09/26 05:10:41;;;;;;;;;;;19.50;45.80;;;;;;5063733;28;19943;-65
2022/09/26 05:13:08;;;;;;;;;;;19.50;45.80;;;;;;5067700;28;19971;-63
2022/09/26 05:15:37;;;;;;;;;;;19.50;45.80;;;;;;5069593;28;20023;-64
2022/09/26 05:18:06;;;;;;;;;;;19.50;45.80;;;;;;5065381;28;20268;-63
2022/09/26 05:20:33;;;;;;;;;;;19.50;45.80;;;;;;5067914;28;19952;-64
2022/09/26 05:23:00;;;;;;;;;;;19.50;45.80;;;;;;5068055;28;19927;-65
2022/09/26 05:28:12;;;;;;;;;;;19.50;45.80;;;;;;5066883;28;19932;-63
2022/09/26 05:30:39;;;;;;;;;;;19.50;45.80;;;;;;5068046;28;19920;-63
2022/09/26 05:33:06;;;;;;;;;;;19.50;45.80;;;;;;5065232;28;19921;-64
2022/09/26 05:35:34;;;;;;;;;;;19.50;45.80;;;;;;5068953;28;20020;-65
2022/09/26 05:38:00;;;;;;;;;;;19.50;45.70;;;;;;5067779;28;20204;-67
2022/09/26 05:43:13;;;;;;;;;;;19.40;45.70;;;;;;5050953;28;19956;-66
2022/09/26 05:45:39;;;;;;;;;;;19.40;45.70;;;;;;5067927;28;19968;-65
2022/09/26 05:48:06;;;;;;;;;;;19.40;45.70;;;;;;5043579;28;19928;-64
2022/09/26 05:50:33;;;;;;;;;;;19.40;45.70;;;;;;5066664;28;19927;-65
2022/09/26 05:53:00;;;;;;;;;;;19.40;45.70;;;;;;5048745;28;19955;-65
2022/09/26 05:55:27;;;;;;;;;;;19.40;45.70;;;;;;5086441;28;20015;-64
2022/09/26 05:57:54;;;;;;;;;;;19.40;45.70;;;;;;5071456;28;19943;-64
2022/09/26 06:00:22;;;;;;;;;;;19.40;45.70;;;;;;5060449;28;19971;-63
2022/09/26 06:02:53;;;;;;;;;;;19.40;45.70;;;;;;5054409;28;19920;-63
2022/09/26 06:05:20;;;;;;;;;;;19.40;45.70;;;;;;5068887;28;20438;-64
2022/09/26 06:07:47;;;;;;;;;;;19.40;45.70;;;;;;5071141;28;20383;-63
2022/09/26 06:10:14;;;;;;;;;;;19.40;45.70;;;;;;5061897;28;20016;-64
2022/09/26 06:12:40;;;;;;;;;;;19.40;45.70;;;;;;5068126;28;19928;-64
2022/09/26 06:15:09;;;;;;;;;;;19.40;45.70;;;;;;5072891;28;19967;-64
2022/09/26 06:17:37;;;;;;;;;;;19.40;45.70;;;;;;5054984;28;19932;-64
2022/09/26 06:20:04;;;;;;;;;;;19.40;45.70;;;;;;5085249;28;19920;-66
2022/09/26 06:22:32;;;;;;;;;;;19.40;45.70;;;;;;5067207;28;20007;-64
2022/09/26 06:24:59;;;;;;;;;;;19.40;45.70;;;;;;5064671;28;20370;-64
2022/09/26 06:27:26;;;;;;;;;;;19.40;45.70;;;;;;5055949;28;20024;-64
2022/09/26 06:29:53;;;;;;;;;;;19.40;45.70;;;;;;5066121;28;19964;-63
2022/09/26 06:32:19;;;;;;;;;;;19.40;45.70;;;;;;5049977;28;19921;-65
2022/09/26 06:34:47;;;;;;;;;;;19.40;45.70;;;;;;5086533;28;19956;-66
2022/09/26 06:37:14;;;;;;;;;;;19.40;45.70;;;;;;5070651;28;20390;-65
2022/09/26 06:39:41;;;;;;;;;;;19.40;45.70;;;;;;5061306;28;20328;-65
2022/09/26 06:42:07;;;;;;;;;;;19.40;45.70;;;;;;5073565;28;19943;-64
2022/09/26 06:44:34;;;;;;;;;;;19.40;45.80;;;;;;5077680;28;19924;-66
2022/09/26 06:47:01;;;;;;;;;;;19.40;45.90;;;;;;5061280;28;19932;-66
2022/09/26 06:49:28;;;;;;;;;;;19.40;45.90;;;;;;5059372;28;19982;-64
2022/09/26 06:51:57;;;;;;;;;;;19.40;46.00;;;;;;5064413;28;19981;-64
2022/09/26 06:54:23;;;;;;;;;;;19.40;46.10;;;;;;5071740;28;19920;-64
2022/09/26 06:56:50;;;;;;;;;;;19.40;46.10;;;;;;5061955;28;19978;-64
2022/09/26 06:59:17;;;;;;;;;;;19.40;46.10;;;;;;5062473;28;20247;-65
2022/09/26 07:01:44;;;;;;;;;;;19.50;46.20;;;;;;5070702;28;19929;-65
2022/09/26 07:04:12;;;;;;;;;;;19.50;46.20;;;;;;5057279;28;19932;-67
2022/09/26 07:06:39;;;;;;;;;;;19.50;46.20;;;;;;5060961;28;19936;-69
2022/09/26 07:09:07;;;;;;;;;;;19.50;46.20;;;;;;5056765;28;19947;-66
2022/09/26 07:11:34;;;;;;;;;;;19.50;46.20;;;;;;5061059;28;19925;-65
2022/09/26 07:14:01;;;;;;;;;;;19.50;46.20;;;;;;5041096;28;20432;-65
2022/09/26 07:16:28;;;;;;;;;;;19.60;46.30;;;;;;5075618;28;19928;-68
2022/09/26 07:18:55;;;;;;;;;;;19.60;46.30;;;;;;5066168;28;19939;-66
2022/09/26 07:21:21;;;;;;;;;;;19.60;46.30;;;;;;5034651;28;19995;-66
2022/09/26 07:23:48;;;;;;;;;;;19.60;46.30;;;;;;5069446;28;19932;-66
2022/09/26 07:26:17;;;;;;;;;;;19.60;46.30;;;;;;5068725;28;19920;-68
2022/09/26 07:28:44;;;;;;;;;;;19.60;46.30;;;;;;5088339;28;20008;-67
2022/09/26 07:31:10;;;;;;;;;;;19.70;46.40;;;;;;5071859;28;19920;-69
2022/09/26 07:33:38;;;;;;;;;;;19.70;46.40;;;;;;5072917;28;19924;-68
2022/09/26 07:36:05;;;;;;;;;;;19.70;46.40;;;;;;5069936;28;20115;-67
2022/09/26 07:38:32;;;;;;;;;;;19.70;46.40;;;;;;5068321;28;19920;-66
2022/09/26 07:40:59;;;;;;;;;;;19.70;46.40;;;;;;5053864;28;19956;-67
2022/09/26 07:43:27;;;;;;;;;;;19.70;46.40;;;;;;5061529;28;19924;-67
2022/09/26 07:51:23;;;;;;;;;;;19.80;46.60;;;;;;5083092;28;20319;-66
2022/09/26 07:53:49;;;;;;;;;;;19.80;46.50;;;;;;5069383;28;19924;-68
2022/09/26 07:56:16;;;;;;;;;;;19.80;46.60;;;;;;5063850;28;19936;-65
2022/09/26 07:58:45;;;;;;;;;;;19.80;46.60;;;;;;5068074;28;19940;-67
2022/09/26 08:01:12;;;;;;;;;;;19.80;46.60;;;;;;5074676;28;19921;-69
2022/09/26 08:03:39;;;;;;;;;;;19.90;46.70;;;;;;5057321;28;20027;-66
2022/09/26 08:06:06;;;;;;;;;;;19.90;46.70;;;;;;5069473;28;19927;-67
2022/09/26 08:08:33;;;;;;;;;;;19.90;46.70;;;;;;5070164;28;19939;-68
2022/09/26 08:11:00;;;;;;;;;;;19.90;46.70;;;;;;5073214;28;19935;-66
2022/09/26 08:13:28;;;;;;;;;;;19.90;46.70;;;;;;5073620;28;19932;-68
2022/09/26 08:16:02;;;;;;;;;;;19.90;46.70;;;;;;5070738;28;19933;-67
2022/09/26 08:18:29;;;;;;;;;;;19.90;46.70;;;;;;5088938;28;20014;-69
2022/09/26 08:20:56;;;;;;;;;;;19.90;46.70;;;;;;5068802;28;19921;-69
2022/09/26 08:23:23;;;;;;;;;;;20.00;46.80;;;;;;5072984;28;20369;-66
2022/09/26 08:25:50;;;;;;;;;;;20.00;46.80;;;;;;5069248;28;19924;-68
2022/09/26 08:28:17;;;;;;;;;;;20.00;46.80;;;;;;5046043;28;19986;-66
2022/09/26 08:30:45;;;;;;;;;;;20.00;46.80;;;;;;5071352;28;20273;-67
2022/09/26 08:33:13;;;;;;;;;;;20.00;46.80;;;;;;5070022;28;19926;-66
2022/09/26 08:35:40;;;;;;;;;;;20.00;46.80;;;;;;5070540;28;19931;-67
2022/09/26 08:38:07;;;;;;;;;;;20.00;46.80;;;;;;5073784;28;19932;-67
2022/09/26 08:40:36;;;;;;;;;;;20.00;46.90;;;;;;5066355;28;19986;-67
2022/09/26 08:43:06;;;;;;;;;;;20.00;46.90;;;;;;5072737;28;20439;-67
2022/09/26 08:48:27;;;;;;;;;;;20.10;47.00;;;;;;5087367;28;19920;-68
2022/09/26 08:50:58;;;;;;;;;;;20.10;47.00;;;;;;5064280;28;19924;-68
2022/09/26 08:53:25;;;;;;;;;;;20.10;47.00;;;;;;5069674;28;19925;-69
2022/09/26 08:55:52;;;;;;;;;;;20.10;47.00;;;;;;5085423;28;20251;-70
2022/09/26 08:58:19;;;;;;;;;;;20.10;47.00;;;;;;5071012;28;20058;-70
2022/09/26 09:00:46;;;;;;;;;;;20.10;47.00;;;;;;5070342;28;19924;-71
2022/09/26 09:03:16;;;;;;;;;;;20.10;47.00;;;;;;5067396;28;19925;-70
2022/09/26 09:05:45;;;;;;;;;;;20.10;47.00;;;;;;5070409;28;19951;-67
2022/09/26 09:08:12;;;;;;;;;;;20.10;47.00;;;;;;5076117;28;19920;-70
2022/09/26 09:10:42;;;;;;;;;;;20.10;47.00;;;;;;5069623;28;19920;-67
2022/09/26 09:13:10;;;;;;;;;;;20.10;47.00;;;;;;5069756;28;20024;-67
2022/09/26 09:15:50;;;;;;;;;;;20.20;47.10;;;;;;5082985;28;19920;-68
2022/09/26 09:18:20;;;;;;;;;;;20.20;47.10;;;;;;5068648;28;20435;-67
2022/09/26 09:20:52;;;;;;;;;;;20.20;47.10;;;;;;5068572;28;19929;-68
2022/09/26 09:23:28;;;;;;;;;;;20.20;47.10;;;;;;5075341;28;19999;-68
2022/09/26 09:25:58;;;;;;;;;;;20.20;47.20;;;;;;5072245;28;19920;-69
2022/09/26 09:28:29;;;;;;;;;;;20.20;47.20;;;;;;5072376;28;20015;-66
2022/09/26 09:30:56;;;;;;;;;;;20.20;47.20;;;;;;5072362;28;19925;-72
2022/09/26 09:33:24;;;;;;;;;;;20.20;47.10;;;;;;5072192;28;20025;-72
2022/09/26 09:35:53;;;;;;;;;;;20.20;47.20;;;;;;5071572;28;19920;-68
2022/09/26 09:38:21;;;;;;;;;;;20.20;47.20;;;;;;5068990;28;19927;-68
2022/09/26 09:40:50;;;;;;;;;;;20.20;47.20;;;;;;5070186;28;19954;-68
2022/09/26 09:43:17;;;;;;;;;;;20.20;47.20;;;;;;5074878;28;19927;-68
2022/09/26 09:45:45;;;;;;;;;;;20.20;47.20;;;;;;5073565;28;20258;-67
2022/09/26 09:48:12;;;;;;;;;;;20.20;47.20;;;;;;5056124;28;19937;-67
2022/09/26 09:50:40;;;;;;;;;;;20.20;47.20;;;;;;5071657;28;20027;-67
2022/09/26 09:53:12;;;;;;;;;;;20.20;47.20;;;;;;5075290;28;19931;-66
2022/09/26 09:55:41;;;;;;;;;;;20.20;47.20;;;;;;5069102;28;19928;-66
2022/09/26 09:58:15;;;;;;;;;;;20.30;47.20;;;;;;5073648;28;19920;-68
2022/09/26 10:00:45;;;;;;;;;;;20.20;47.20;;;;;;5055001;28;19925;-67
2022/09/26 10:03:14;;;;;;;;;;;20.30;47.20;;;;;;5072139;28;19920;-67
2022/09/26 10:05:41;;;;;;;;;;;20.30;47.20;;;;;;5068134;28;19921;-67
2022/09/26 10:08:12;;;;;;;;;;;20.30;47.20;;;;;;5069193;28;20396;-66
2022/09/26 10:10:41;;;;;;;;;;;20.30;47.20;;;;;;5070493;28;19921;-66
2022/09/26 10:13:09;;;;;;;;;;;20.30;47.20;;;;;;5073177;28;19928;-67
2022/09/26 10:15:39;;;;;;;;;;;20.30;47.20;;;;;;5072741;28;19925;-67
2022/09/26 10:18:06;;;;;;;;;;;20.30;47.20;;;;;;5067982;28;19932;-66
2022/09/26 10:20:34;;;;;;;;;;;20.30;47.20;;;;;;5073099;28;19920;-64
2022/09/26 10:23:03;;;;;;;;;;;20.30;47.20;;;;;;5091718;28;20388;-67
2022/09/26 10:25:31;;;;;;;;;;;20.30;47.20;;;;;;5070855;28;20015;-65
2022/09/26 10:27:59;;;;;;;;;;;20.30;47.20;;;;;;5068679;28;19927;-69
2022/09/26 10:30:30;;;;;;;;;;;20.30;47.20;;;;;;5054579;28;19980;-67
2022/09/26 10:32:59;;;;;;;;;;;20.30;47.20;;;;;;5089086;28;20374;-69
2022/09/26 10:35:28;;;;;;;;;;;20.30;47.20;;;;;;5070330;28;19948;-67
2022/09/26 10:37:58;;;;;;;;;;;20.30;47.20;;;;;;5064261;28;19948;-70
2022/09/26 10:40:44;;;;;;;;;;;20.30;47.20;;;;;;5070990;28;19920;-67
2022/09/26 10:43:22;;;;;;;;;;;20.30;47.20;;;;;;5070028;28;20448;-67
2022/09/26 10:45:52;;;;;;;;;;;20.30;47.20;;;;;;5072426;28;20269;-68
2022/09/26 10:48:20;;;;;;;;;;;20.40;47.30;;;;;;5082403;28;19928;-70
2022/09/26 10:50:49;;;;;;;;;;;20.40;47.30;;;;;;5070674;28;19920;-71
2022/09/26 10:53:16;;;;;;;;;;;20.40;47.40;;;;;;5066993;28;20023;-66
2022/09/26 10:55:43;;;;;;;;;;;20.40;47.30;;;;;;5084712;28;19920;-66
2022/09/26 10:58:15;;;;;;;;;;;20.40;47.40;;;;;;5081599;28;19920;-66
2022/09/26 11:00:44;;;;;;;;;;;20.40;47.30;;;;;;5077638;28;20335;-66
2022/09/26 11:03:11;;;;;;;;;;;20.40;47.40;;;;;;5068844;28;19924;-66
2022/09/26 11:05:56;;;;;;;;;;;20.40;47.40;;;;;;5070670;28;20336;-66
2022/09/26 11:08:23;;;;;;;;;;;20.40;47.40;;;;;;5081144;28;19920;-66
2022/09/26 11:10:51;;;;;;;;;;;20.40;47.40;;;;;;5071874;28;19990;-65
2022/09/26 11:13:19;;;;;;;;;;;20.40;47.40;;;;;;5054175;28;20377;-66
2022/09/26 11:15:53;;;;;;;;;;;20.40;47.40;;;;;;5059651;28;19967;-66
2022/09/26 11:18:24;;;;;;;;;;;20.40;47.40;;;;;;5083580;28;19927;-66
2022/09/26 11:20:50;;;;;;;;;;;20.40;47.40;;;;;;5071022;28;19920;-66
2022/09/26 11:23:21;;;;;;;;;;;20.40;47.40;;;;;;5070035;28;20381;-66
2022/09/26 11:25:52;;;;;;;;;;;20.40;47.40;;;;;;5070916;28;20285;-65
2022/09/26 11:28:22;;;;;;;;;;;20.40;47.40;;;;;;5051470;28;19967;-68
2022/09/26 11:30:49;;;;;;;;;;;20.40;47.40;;;;;;5068594;28;20377;-65
2022/09/26 11:33:18;;;;;;;;;;;20.40;47.40;;;;;;5069708;28;19933;-74
2022/09/26 11:35:45;;;;;;;;;;;20.40;47.50;;;;;;5075716;28;19956;-71
2022/09/26 11:38:14;;;;;;;;;;;20.40;47.50;;;;;;5069690;28;20404;-71
2022/09/26 11:40:53;;;;;;;;;;;20.40;47.50;;;;;;5069737;28;19928;-69
2022/09/26 11:43:25;;;;;;;;;;;20.40;47.50;;;;;;5070311;28;20266;-69
2022/09/26 11:45:56;;;;;;;;;;;20.40;47.50;;;;;;5067454;28;19928;-70
2022/09/26 11:48:37;;;;;;;;;;;20.50;47.50;;;;;;5066940;28;19931;-70
2022/09/26 11:51:08;;;;;;;;;;;20.50;47.50;;;;;;5065341;28;19928;-73
2022/09/26 11:53:45;;;;;;;;;;;20.50;47.50;;;;;;5073052;28;19928;-74
2022/09/26 11:56:26;;;;;;;;;;;20.50;47.50;;;;;;5069903;28;20262;-74
2022/09/26 11:58:54;;;;;;;;;;;20.50;47.50;;;;;;5086510;28;19924;-71
2022/09/26 12:01:25;;;;;;;;;;;20.50;47.50;;;;;;5074019;28;20100;-73
2022/09/26 12:03:56;;;;;;;;;;;20.50;47.50;;;;;;5068162;28;19947;-71
2022/09/26 12:06:30;;;;;;;;;;;20.50;47.50;;;;;;5069329;28;19942;-73
2022/09/26 12:09:11;;;;;;;;;;;20.50;47.50;;;;;;5068232;28;19931;-70
2022/09/26 12:11:47;;;;;;;;;;;20.50;47.50;;;;;;5061042;28;19925;-70
2022/09/26 12:14:17;;;;;;;;;;;20.50;47.50;;;;;;5076260;28;19927;-73
2022/09/26 12:16:47;;;;;;;;;;;20.50;47.50;;;;;;5081712;28;19960;-71
2022/09/26 12:19:16;;;;;;;;;;;20.50;47.50;;;;;;5070117;28;19981;-70
2022/09/26 12:24:28;;;;;;;;;;;20.50;47.50;;;;;;5058384;28;19924;-70
2022/09/26 12:26:57;;;;;;;;;;;20.50;47.60;;;;;;5072608;28;19927;-72
2022/09/26 12:29:27;;;;;;;;;;;20.50;47.60;;;;;;5053736;28;19921;-72
2022/09/26 12:32:06;;;;;;;;;;;20.50;47.60;;;;;;5072918;28;20429;-70
2022/09/26 12:34:37;;;;;;;;;;;20.60;47.70;;;;;;5076798;28;19920;-72
2022/09/26 12:37:08;;;;;;;;;;;20.60;47.70;;;;;;5061319;28;19924;-73
2022/09/26 12:39:38;;;;;;;;;;;20.60;47.70;;;;;;5058979;28;19940;-70
2022/09/26 12:42:09;;;;;;;;;;;20.50;47.60;;;;;;5067343;28;19976;-72
2022/09/26 12:44:39;;;;;;;;;;;20.60;47.70;;;;;;5066001;28;19921;-71
2022/09/26 12:47:10;;;;;;;;;;;20.60;47.70;;;;;;5063427;28;19925;-71
2022/09/26 12:49:40;;;;;;;;;;;20.60;47.70;;;;;;5053952;28;19925;-71
2022/09/26 12:52:11;;;;;;;;;;;20.60;47.70;;;;;;5075482;28;20354;-70
2022/09/26 12:54:49;;;;;;;;;;;20.60;47.70;;;;;;5082304;28;19966;-70
2022/09/26 12:57:20;;;;;;;;;;;20.60;47.70;;;;;;5070451;28;19921;-70
2022/09/26 12:59:54;;;;;;;;;;;20.60;47.70;;;;;;5059910;28;20350;-70
2022/09/26 13:02:36;;;;;;;;;;;20.60;47.70;;;;;;5077798;28;19920;-70
2022/09/26 13:05:16;;;;;;;;;;;20.60;47.70;;;;;;5058788;28;19960;-74
2022/09/26 13:07:50;;;;;;;;;;;20.60;47.80;;;;;;5064026;28;20637;-72
2022/09/26 13:10:23;;;;;;;;;;;20.60;47.80;;;;;;5070168;28;20031;-70
2022/09/26 13:12:58;;;;;;;;;;;20.60;47.80;;;;;;5071883;28;19920;-69
2022/09/26 13:15:29;;;;;;;;;;;20.60;47.80;;;;;;5078419;28;19924;-68
2022/09/26 13:17:57;;;;;;;;;;;20.60;47.90;;;;;;5073730;28;20790;-66
2022/09/26 13:20:26;;;;;;;;;;;20.60;47.90;;;;;;5067766;28;19974;-69
2022/09/26 13:22:56;;;;;;;;;;;20.60;47.90;;;;;;5071051;28;20372;-70
2022/09/26 13:25:25;;;;;;;;;;;20.60;47.90;;;;;;5068724;28;19921;-69
2022/09/26 13:27:53;;;;;;;;;;;20.60;47.90;;;;;;5069779;28;19964;-69
2022/09/26 13:30:23;;;;;;;;;;;20.60;47.90;;;;;;5085533;28;19927;-71
2022/09/26 13:32:55;;;;;;;;;;;20.60;47.80;;;;;;5066521;28;19929;-69
2022/09/26 13:35:23;;;;;;;;;;;20.60;47.90;;;;;;5068515;28;20432;-68
2022/09/26 13:37:55;;;;;;;;;;;20.60;47.90;;;;;;5072786;28;19935;-68
2022/09/26 13:40:24;;;;;;;;;;;20.60;47.90;;;;;;5070712;28;19921;-67
2022/09/26 13:42:55;;;;;;;;;;;20.60;47.90;;;;;;5067112;28;19924;-67
2022/09/26 13:45:23;;;;;;;;;;;20.60;47.90;;;;;;5065575;28;19948;-67
2022/09/26 13:47:50;;;;;;;;;;;20.60;47.90;;;;;;5084581;28;20270;-67
2022/09/26 13:50:22;;;;;;;;;;;20.60;47.90;;;;;;5065584;28;19932;-69
2022/09/26 13:52:51;;;;;;;;;;;20.60;47.90;;;;;;5067359;28;19930;-68
2022/09/26 13:55:20;;;;;;;;;;;20.60;47.90;;;;;;5067988;28;19920;-68
2022/09/26 13:57:50;;;;;;;;;;;20.60;47.90;;;;;;5080565;28;19945;-68
2022/09/26 14:00:39;;;;;;;;;;;20.60;47.90;;;;;;5067392;28;19943;-69
2022/09/26 14:03:24;;;;;;;;;;;20.60;48.00;;;;;;5065838;28;19925;-70
2022/09/26 14:05:51;;;;;;;;;;;20.60;48.00;;;;;;5064283;28;20484;-68
2022/09/26 14:11:23;;;;;;;;;;;20.60;47.90;;;;;;5082424;28;19920;-70
2022/09/26 14:14:04;;;;;;;;;;;20.60;47.90;;;;;;5068207;28;19948;-69
2022/09/26 14:16:35;;;;;;;;;;;20.60;47.90;;;;;;5082904;28;20015;-69
2022/09/26 14:19:03;;;;;;;;;;;20.60;47.90;;;;;;5054408;28;19921;-71
2022/09/26 14:21:40;;;;;;;;;;;20.60;47.90;;;;;;5070458;28;19921;-69
2022/09/26 14:24:30;;;;;;;;;;;20.60;47.90;;;;;;5067462;28;19974;-68
2022/09/26 14:26:59;;;;;;;;;;;20.60;47.90;;;;;;5085181;28;19932;-69
2022/09/26 14:29:30;;;;;;;;;;;20.60;47.90;;;;;;5069402;28;20067;-67
2022/09/26 14:31:59;;;;;;;;;;;20.60;47.90;;;;;;5069644;28;19966;-68
2022/09/26 14:34:26;;;;;;;;;;;20.60;48.50;;;;;;5071081;28;19924;-69
2022/09/26 14:36:53;;;;;;;;;;;20.60;48.00;;;;;;5071582;28;19927;-67
2022/09/26 14:39:27;;;;;;;;;;;20.60;47.90;;;;;;5069204;28;20026;-67
2022/09/26 14:41:54;;;;;;;;;;;20.60;47.90;;;;;;5087659;28;20036;-67
2022/09/26 14:44:22;;;;;;;;;;;20.60;47.90;;;;;;5071081;28;19928;-68
2022/09/26 14:46:51;;;;;;;;;;;20.60;47.90;;;;;;5072725;28;19920;-69